Report METAR

 

LJLJ - Ljubljana/Brnik, Slovenia
Distance from station: O 41km
Dati ricevuti: 25/05/2020 02:00
Sereno
Sereno
 Vento da Variabile
Vento: Variabile 2 km/h
Temperatura: 9°C
P.to Rugiada: 7°C
Umidità: 87%
Barometro: 1028 hPa
Summary: Sereno
Visibility: superiore a 10 km
2020/05/25 00:00 LJLJ 250000Z VRB01KT CAVOK 09/07 Q1028 NOSIG
LJMB - Maribor, Slovenia
Distance from station: NE 63km
Dati ricevuti: 25/05/2020 02:00
Parz. nuvoloso
Parz. nuvoloso
 Vento da Variabile
Vento: Variabile 4 km/h
Temperatura: 11°C
P.to Rugiada: 8°C
Umidità: 82%
Barometro: 1028 hPa
Nuvole: Parz. nuvoloso
Visibility: 10 km
2020/05/25 00:00 LJMB 250000Z AUTO VRB02KT 9999 NSC 11/08 Q1028
 
LJPZ - Portoroz, Slovenia
Distance from station: SO 130km
Dati ricevuti: 25/05/2020 02:00
Parz. nuvoloso
Parz. nuvoloso
 Vento da ESE
Vento: ESE 15 km/h
Temperatura: 12°C
P.to Rugiada: 9°C
Umidità: 82%
Barometro: 1027 hPa
Nuvole: Parz. nuvoloso
Visibility: 10 km
2020/05/25 00:00 LJPZ 250000Z AUTO 12008KT 9999 NSC 12/09 Q1027
LJCE - Cerklje, Slovenia
Distance from station: ESE 49km
Dati ricevuti: 25/05/2020 02:00
Parz. nuvoloso
Parz. nuvoloso
 Vento da calmo
Vento: Calma
Temperatura: 9°C
P.to Rugiada: 8°C
Umidità: 94%
Barometro: 1028 hPa
Nuvole: Parz. nuvoloso
Visibility: 10 km
2020/05/25 00:00 LJCE 250000Z AUTO 00000KT 9999 NSC 09/08 Q1028
 
LDZA - Zagreb/Pleso, Croatia
Distance from station: ESE 96km
Dati ricevuti: 25/05/2020 02:00
Sereno
Sereno
 Vento da Variabile
Vento: Variabile 4 km/h
Temperatura: 12°C
P.to Rugiada: 10°C
Umidità: 88%
Barometro: 1027 hPa
Summary: Sereno
Visibility: superiore a 10 km
2020/05/25 00:00 LDZA 250000Z VRB02KT CAVOK 12/10 Q1027 NOSIG
LDRI - Rijeka/Omisalj, Croatia
Distance from station: SSO 109km
Dati ricevuti: 25/05/2020 02:00
Sereno
Sereno
 Vento da NE
Vento: NE 9 km/h
Temperatura: 15°C
P.to Rugiada: 5°C
Umidità: 51%
Barometro: 1027 hPa
Summary: Sereno
Visibility: superiore a 10 km
2020/05/25 00:00 LDRI 250000Z 05005KT CAVOK 15/05 Q1027
 
LDPL - Pula, Croatia
Distance from station: SSO 164km
Dati ricevuti: 25/05/2020 02:00
Sereno
Sereno
 Vento da NNE
Vento: NNE 15 km/h
Temperatura: 15°C
P.to Rugiada: 6°C
Umidità: 55%
Barometro: 1027 hPa
Summary: Sereno
Visibility: superiore a 10 km
2020/05/25 00:00 LDPL 250000Z 03008KT CAVOK 15/06 Q1027
LOWK - Klagenfurt(Civ/M, Austria
Distance from station: NO 76km
Dati ricevuti: 25/05/2020 01:50
Molto nuvoloso
Molto nuvoloso
 Vento da Variabile
Vento: Variabile 4 km/h
Temperatura: 10°C
P.to Rugiada: 5°C
Umidità: 71%
Barometro: 1029 hPa
Nuvole: Molto nuvoloso
Visibility: 10 km
Cloud details: Molto nuvoloso 2438 m
2020/05/24 23:50 LOWK 242350Z AUTO VRB02KT 9999 BKN080 10/05 Q1029
 
LOWG - Graz (mil/Civ), Austria
Distance from station: NNE 100km
Dati ricevuti: 25/05/2020 01:50
Parz. nuvoloso
Parz. nuvoloso
 Vento da Variabile
Vento: Variabile 4 km/h
Temperatura: 13°C
P.to Rugiada: 5°C
Umidità: 59%
Barometro: 1027 hPa
Nuvole: Parz. nuvoloso
Visibility: 10 km
Cloud details: Few Clouds 1829 m
Parz. nuvoloso 2134 m
2020/05/24 23:50 LOWG 242350Z AUTO VRB02KT 9999 FEW060 SCT070 13/05 Q1027
LOAN - Wr.neustadt East, Austria
Distance from station: NNE 212km
Dati ricevuti: 24/05/2020 20:00
DATI Obsoleti
Molto nuvoloso
Molto nuvoloso
 Vento da O
Vento: O 19 km/h
Nuvole: Molto nuvoloso
Cloud details: Few Clouds 1219 m
Parz. nuvoloso 1524 m
Molto nuvoloso 3048 m
2020/05/24 18:00 LOAN 241800Z 28010KT 25KM FEW040CU SCT050SC BKN100AC
 
LIPQ - Ronchi Legionari, Italy
Distance from station: SO 35km
Dati ricevuti: 25/05/2020 01:50
Sereno
Sereno
 Vento da E
Vento: E 6 km/h
Temperatura: 13°C
P.to Rugiada: 9°C
Umidità: 77%
Barometro: 1027 hPa
Nuvole: Sereno
Visibility: 10 km
2020/05/24 23:50 LIPQ 242350Z AUTO 09003KT 9999 // NCD 13/09 Q1027
LIVT - Trieste, Italy
Distance from station: OSO 109km
Dati ricevuti: 25/05/2020 01:55
Sereno
Sereno
 Vento da Variabile
Vento: Variabile 0 km/h
Temperatura: 16°C
P.to Rugiada: 12°C
Umidità: 77%
Barometro: 1026 hPa
Summary: Sereno
Visibility: superiore a 10 km
2020/05/24 23:55 LIVT 242355Z /////KT CAVOK 16/12 Q1026 RMK SKC QUK / QUL / VIS MAR 20 KM VIS MIN 9999
 
LIVO - Tarvisio, Italy
Distance from station: NNO 49km
Dati ricevuti: 24/05/2020 19:55
DATI Obsoleti
Few Clouds
Few Clouds
 Vento da calmo
Vento: Calma
Temperatura: 13°C
P.to Rugiada: 6°C
Umidità: 63%
Barometro: 1026 hPa
Nuvole: Few Clouds
Visibility: 10 km
Cloud details: Few Clouds 1219 m
2020/05/24 17:55 LIVO 241755Z 00000KT 9999 FEW040 13/06 Q1026 RMK FEW VIS MIN 9999
LIPZ - Venezia/Tessera, Italy
Distance from station: OSO 217km
Dati ricevuti: 25/05/2020 01:50
Sereno
Sereno
 Vento da O
Vento: O 6 km/h
Temperatura: 17°C
P.to Rugiada: 12°C
Umidità: 73%
Barometro: 1026 hPa
Summary: Sereno
Visibility: superiore a 10 km
2020/05/24 23:50 LIPZ 242350Z 28003KT CAVOK 17/12 Q1026 NOSIG
 
LHSM - Balaton, Hungary
Distance from station: ENE 177km
Dati ricevuti: 25/05/2020 01:45
Parz. nuvoloso
Parz. nuvoloso
 Vento da NNO
Vento: NNO 11 km/h
Temperatura: 9°C
Temperatura Vento: 7°C
P.to Rugiada: 6°C
Umidità: 82%
Barometro: 1028 hPa
Nuvole: Parz. nuvoloso
Visibility: 9 km
2020/05/24 23:45 LHSM 242345Z AUTO 33006KT 9000 NSC 09/06 Q1028